sensor_id;sensor_type;location;lat;lon;timestamp;temperature;humidity
29031;DHT22;16122;50.236;11.734;2024-02-26T00:01:41;16.00;67.90
29031;DHT22;16122;50.236;11.734;2024-02-26T00:04:09;16.00;67.80
29031;DHT22;16122;50.236;11.734;2024-02-26T00:06:35;16.10;67.80
29031;DHT22;16122;50.236;11.734;2024-02-26T00:09:02;16.00;67.60
29031;DHT22;16122;50.236;11.734;2024-02-26T00:11:31;16.00;67.50
29031;DHT22;16122;50.236;11.734;2024-02-26T00:13:57;16.00;67.40
29031;DHT22;16122;50.236;11.734;2024-02-26T00:16:23;16.00;67.40
29031;DHT22;16122;50.236;11.734;2024-02-26T00:18:49;16.00;67.30
29031;DHT22;16122;50.236;11.734;2024-02-26T00:21:15;16.00;67.30
29031;DHT22;16122;50.236;11.734;2024-02-26T00:23:41;16.00;67.20
29031;DHT22;16122;50.236;11.734;2024-02-26T00:26:09;16.00;67.10
29031;DHT22;16122;50.236;11.734;2024-02-26T00:28:36;16.10;67.20
29031;DHT22;16122;50.236;11.734;2024-02-26T00:31:03;16.00;66.90
29031;DHT22;16122;50.236;11.734;2024-02-26T00:33:29;16.10;67.10
29031;DHT22;16122;50.236;11.734;2024-02-26T00:35:56;16.00;66.90
29031;DHT22;16122;50.236;11.734;2024-02-26T00:38:21;16.10;66.90
29031;DHT22;16122;50.236;11.734;2024-02-26T00:40:47;16.00;66.80
29031;DHT22;16122;50.236;11.734;2024-02-26T00:43:13;16.00;66.70
29031;DHT22;16122;50.236;11.734;2024-02-26T00:45:39;16.10;66.90
29031;DHT22;16122;50.236;11.734;2024-02-26T00:48:05;16.10;66.60
29031;DHT22;16122;50.236;11.734;2024-02-26T00:50:31;16.10;66.70
29031;DHT22;16122;50.236;11.734;2024-02-26T00:52:57;16.10;66.70
29031;DHT22;16122;50.236;11.734;2024-02-26T00:55:23;16.10;66.70
29031;DHT22;16122;50.236;11.734;2024-02-26T00:57:49;16.10;66.60
29031;DHT22;16122;50.236;11.734;2024-02-26T01:00:15;16.10;66.50
29031;DHT22;16122;50.236;11.734;2024-02-26T01:02:41;16.10;67.30
29031;DHT22;16122;50.236;11.734;2024-02-26T01:05:08;16.10;66.40
29031;DHT22;16122;50.236;11.734;2024-02-26T01:07:36;16.10;66.40
29031;DHT22;16122;50.236;11.734;2024-02-26T01:10:04;16.10;66.40
29031;DHT22;16122;50.236;11.734;2024-02-26T01:12:31;16.10;66.40
29031;DHT22;16122;50.236;11.734;2024-02-26T01:14:57;16.10;66.30
29031;DHT22;16122;50.236;11.734;2024-02-26T01:17:23;16.20;66.30
29031;DHT22;16122;50.236;11.734;2024-02-26T01:19:49;16.10;66.10
29031;DHT22;16122;50.236;11.734;2024-02-26T01:22:15;16.20;66.20
29031;DHT22;16122;50.236;11.734;2024-02-26T01:24:40;16.20;66.10
29031;DHT22;16122;50.236;11.734;2024-02-26T01:27:06;16.20;66.00
29031;DHT22;16122;50.236;11.734;2024-02-26T01:29:34;16.20;66.00
29031;DHT22;16122;50.236;11.734;2024-02-26T01:32:00;16.20;65.90
29031;DHT22;16122;50.236;11.734;2024-02-26T01:34:27;16.20;65.90
29031;DHT22;16122;50.236;11.734;2024-02-26T01:36:53;16.20;65.70
29031;DHT22;16122;50.236;11.734;2024-02-26T01:39:19;16.20;65.60
29031;DHT22;16122;50.236;11.734;2024-02-26T01:41:45;16.20;65.60
29031;DHT22;16122;50.236;11.734;2024-02-26T01:44:12;16.20;65.50
29031;DHT22;16122;50.236;11.734;2024-02-26T01:46:39;16.20;65.50
29031;DHT22;16122;50.236;11.734;2024-02-26T01:49:06;16.20;65.40
29031;DHT22;16122;50.236;11.734;2024-02-26T01:51:33;16.30;65.50
29031;DHT22;16122;50.236;11.734;2024-02-26T01:54:02;16.30;65.50
29031;DHT22;16122;50.236;11.734;2024-02-26T01:56:29;16.20;65.40
29031;DHT22;16122;50.236;11.734;2024-02-26T01:59:01;16.30;65.40
29031;DHT22;16122;50.236;11.734;2024-02-26T02:01:29;16.30;65.40
29031;DHT22;16122;50.236;11.734;2024-02-26T02:03:59;16.30;65.50
29031;DHT22;16122;50.236;11.734;2024-02-26T02:06:26;16.30;65.40
29031;DHT22;16122;50.236;11.734;2024-02-26T02:08:54;16.30;65.40
29031;DHT22;16122;50.236;11.734;2024-02-26T02:11:20;16.30;65.30
29031;DHT22;16122;50.236;11.734;2024-02-26T02:13:46;16.30;65.30
29031;DHT22;16122;50.236;11.734;2024-02-26T02:16:13;16.30;65.20
29031;DHT22;16122;50.236;11.734;2024-02-26T02:18:39;16.30;65.20
29031;DHT22;16122;50.236;11.734;2024-02-26T02:21:05;16.30;65.20
29031;DHT22;16122;50.236;11.734;2024-02-26T02:23:31;16.30;66.00
29031;DHT22;16122;50.236;11.734;2024-02-26T02:25:57;16.30;65.20
29031;DHT22;16122;50.236;11.734;2024-02-26T02:28:25;16.30;65.10
29031;DHT22;16122;50.236;11.734;2024-02-26T02:30:51;16.30;65.10
29031;DHT22;16122;50.236;11.734;2024-02-26T02:33:17;16.30;65.10
29031;DHT22;16122;50.236;11.734;2024-02-26T02:35:43;16.30;65.10
29031;DHT22;16122;50.236;11.734;2024-02-26T02:38:09;16.30;65.10
29031;DHT22;16122;50.236;11.734;2024-02-26T02:40:35;16.30;65.10
29031;DHT22;16122;50.236;11.734;2024-02-26T02:43:01;16.30;65.00
29031;DHT22;16122;50.236;11.734;2024-02-26T02:45:28;16.30;65.00
29031;DHT22;16122;50.236;11.734;2024-02-26T02:47:54;16.40;65.10
29031;DHT22;16122;50.236;11.734;2024-02-26T02:50:20;16.40;65.00
29031;DHT22;16122;50.236;11.734;2024-02-26T02:52:46;16.40;65.00
29031;DHT22;16122;50.236;11.734;2024-02-26T02:55:12;16.40;65.00
29031;DHT22;16122;50.236;11.734;2024-02-26T02:57:40;16.40;65.00
29031;DHT22;16122;50.236;11.734;2024-02-26T03:00:10;16.40;65.00
29031;DHT22;16122;50.236;11.734;2024-02-26T03:02:36;16.40;65.00
29031;DHT22;16122;50.236;11.734;2024-02-26T03:05:03;16.40;64.90
29031;DHT22;16122;50.236;11.734;2024-02-26T03:07:29;16.40;64.90
29031;DHT22;16122;50.236;11.734;2024-02-26T03:09:55;16.40;64.90
29031;DHT22;16122;50.236;11.734;2024-02-26T03:12:21;16.40;64.80
29031;DHT22;16122;50.236;11.734;2024-02-26T03:14:47;16.40;64.80
29031;DHT22;16122;50.236;11.734;2024-02-26T03:17:13;16.40;64.70
29031;DHT22;16122;50.236;11.734;2024-02-26T03:19:38;16.40;64.80
29031;DHT22;16122;50.236;11.734;2024-02-26T03:22:04;16.40;64.70
29031;DHT22;16122;50.236;11.734;2024-02-26T03:24:30;16.40;64.70
29031;DHT22;16122;50.236;11.734;2024-02-26T03:26:56;16.40;64.70
29031;DHT22;16122;50.236;11.734;2024-02-26T03:29:22;16.40;64.60
29031;DHT22;16122;50.236;11.734;2024-02-26T03:31:48;16.40;64.60
29031;DHT22;16122;50.236;11.734;2024-02-26T03:34:13;16.40;64.60
29031;DHT22;16122;50.236;11.734;2024-02-26T03:36:41;16.40;64.70
29031;DHT22;16122;50.236;11.734;2024-02-26T03:39:06;16.40;64.50
29031;DHT22;16122;50.236;11.734;2024-02-26T03:41:33;16.40;64.60
29031;DHT22;16122;50.236;11.734;2024-02-26T03:44:00;16.40;64.60
29031;DHT22;16122;50.236;11.734;2024-02-26T03:46:26;16.40;64.50
29031;DHT22;16122;50.236;11.734;2024-02-26T03:48:52;16.40;64.50
29031;DHT22;16122;50.236;11.734;2024-02-26T03:51:18;16.30;64.40
29031;DHT22;16122;50.236;11.734;2024-02-26T03:53:44;16.40;64.50
29031;DHT22;16122;50.236;11.734;2024-02-26T03:56:12;16.40;64.50
29031;DHT22;16122;50.236;11.734;2024-02-26T03:58:39;16.40;64.50
29031;DHT22;16122;50.236;11.734;2024-02-26T04:01:07;16.40;64.50
29031;DHT22;16122;50.236;11.734;2024-02-26T04:03:33;16.40;64.50
29031;DHT22;16122;50.236;11.734;2024-02-26T04:06:00;16.40;64.50
29031;DHT22;16122;50.236;11.734;2024-02-26T04:08:26;16.40;64.50
29031;DHT22;16122;50.236;11.734;2024-02-26T04:10:52;16.30;64.40
29031;DHT22;16122;50.236;11.734;2024-02-26T04:13:18;16.40;64.50
29031;DHT22;16122;50.236;11.734;2024-02-26T04:15:44;16.40;64.40
29031;DHT22;16122;50.236;11.734;2024-02-26T04:18:10;16.40;64.30
29031;DHT22;16122;50.236;11.734;2024-02-26T04:20:36;16.30;64.30
29031;DHT22;16122;50.236;11.734;2024-02-26T04:23:03;16.30;64.20
29031;DHT22;16122;50.236;11.734;2024-02-26T04:25:28;16.30;64.30
29031;DHT22;16122;50.236;11.734;2024-02-26T04:27:54;16.30;64.40
29031;DHT22;16122;50.236;11.734;2024-02-26T04:30:20;16.30;64.40
29031;DHT22;16122;50.236;11.734;2024-02-26T04:32:46;16.30;64.30
29031;DHT22;16122;50.236;11.734;2024-02-26T04:35:12;16.30;64.20
29031;DHT22;16122;50.236;11.734;2024-02-26T04:37:38;16.30;64.20
29031;DHT22;16122;50.236;11.734;2024-02-26T04:40:04;16.30;64.20
29031;DHT22;16122;50.236;11.734;2024-02-26T04:42:30;16.30;64.20
29031;DHT22;16122;50.236;11.734;2024-02-26T04:44:56;16.30;64.10
29031;DHT22;16122;50.236;11.734;2024-02-26T04:47:21;16.30;64.10
29031;DHT22;16122;50.236;11.734;2024-02-26T04:49:50;16.30;64.10
29031;DHT22;16122;50.236;11.734;2024-02-26T04:52:17;16.30;64.10
29031;DHT22;16122;50.236;11.734;2024-02-26T04:54:43;16.30;64.20
29031;DHT22;16122;50.236;11.734;2024-02-26T04:57:08;16.30;64.00
29031;DHT22;16122;50.236;11.734;2024-02-26T04:59:34;16.30;64.00
29031;DHT22;16122;50.236;11.734;2024-02-26T05:02:00;16.30;63.90
29031;DHT22;16122;50.236;11.734;2024-02-26T05:04:26;16.30;63.90
29031;DHT22;16122;50.236;11.734;2024-02-26T05:06:51;16.30;63.90
29031;DHT22;16122;50.236;11.734;2024-02-26T05:09:18;16.30;64.00
29031;DHT22;16122;50.236;11.734;2024-02-26T05:11:44;16.30;64.30
29031;DHT22;16122;50.236;11.734;2024-02-26T05:14:10;16.30;64.40
29031;DHT22;16122;50.236;11.734;2024-02-26T05:16:36;16.30;64.40
29031;DHT22;16122;50.236;11.734;2024-02-26T05:19:03;16.30;64.60
29031;DHT22;16122;50.236;11.734;2024-02-26T05:21:29;16.30;64.50
29031;DHT22;16122;50.236;11.734;2024-02-26T05:23:55;16.30;64.70
29031;DHT22;16122;50.236;11.734;2024-02-26T05:26:21;16.30;64.70
29031;DHT22;16122;50.236;11.734;2024-02-26T05:28:47;16.30;64.90
29031;DHT22;16122;50.236;11.734;2024-02-26T05:31:14;16.30;64.90
29031;DHT22;16122;50.236;11.734;2024-02-26T05:33:39;16.30;65.10
29031;DHT22;16122;50.236;11.734;2024-02-26T05:36:06;16.30;65.50
29031;DHT22;16122;50.236;11.734;2024-02-26T05:38:32;16.30;66.00
29031;DHT22;16122;50.236;11.734;2024-02-26T05:40:58;16.30;66.20
29031;DHT22;16122;50.236;11.734;2024-02-26T05:43:25;16.30;66.50
29031;DHT22;16122;50.236;11.734;2024-02-26T05:45:51;16.30;66.80
29031;DHT22;16122;50.236;11.734;2024-02-26T05:48:17;16.30;66.60
29031;DHT22;16122;50.236;11.734;2024-02-26T05:50:45;16.30;66.70
29031;DHT22;16122;50.236;11.734;2024-02-26T05:53:11;16.30;66.80
29031;DHT22;16122;50.236;11.734;2024-02-26T05:55:37;16.30;67.00
29031;DHT22;16122;50.236;11.734;2024-02-26T05:58:03;16.40;67.10
29031;DHT22;16122;50.236;11.734;2024-02-26T06:00:29;16.30;67.10
29031;DHT22;16122;50.236;11.734;2024-02-26T06:02:54;16.40;67.30
29031;DHT22;16122;50.236;11.734;2024-02-26T06:05:20;16.40;67.40
29031;DHT22;16122;50.236;11.734;2024-02-26T06:07:46;16.40;67.50
29031;DHT22;16122;50.236;11.734;2024-02-26T06:10:12;16.30;67.40
29031;DHT22;16122;50.236;11.734;2024-02-26T06:12:39;16.30;67.10
29031;DHT22;16122;50.236;11.734;2024-02-26T06:15:06;16.40;67.80
29031;DHT22;16122;50.236;11.734;2024-02-26T06:17:32;16.40;67.10
29031;DHT22;16122;50.236;11.734;2024-02-26T06:19:59;16.30;66.80
29031;DHT22;16122;50.236;11.734;2024-02-26T06:22:25;16.40;67.10
29031;DHT22;16122;50.236;11.734;2024-02-26T06:24:51;16.40;67.30
29031;DHT22;16122;50.236;11.734;2024-02-26T06:27:17;16.40;67.30
29031;DHT22;16122;50.236;11.734;2024-02-26T06:29:43;16.40;67.30
29031;DHT22;16122;50.236;11.734;2024-02-26T06:32:09;16.40;67.30
29031;DHT22;16122;50.236;11.734;2024-02-26T06:34:35;16.40;67.40
29031;DHT22;16122;50.236;11.734;2024-02-26T06:37:01;16.30;67.30
29031;DHT22;16122;50.236;11.734;2024-02-26T06:39:27;16.40;67.40
29031;DHT22;16122;50.236;11.734;2024-02-26T06:41:53;16.40;67.40
29031;DHT22;16122;50.236;11.734;2024-02-26T06:44:26;16.40;67.30
29031;DHT22;16122;50.236;11.734;2024-02-26T06:46:52;16.30;67.20
29031;DHT22;16122;50.236;11.734;2024-02-26T06:49:18;16.30;67.30
29031;DHT22;16122;50.236;11.734;2024-02-26T06:51:43;16.40;67.40
29031;DHT22;16122;50.236;11.734;2024-02-26T06:54:09;16.40;67.20
29031;DHT22;16122;50.236;11.734;2024-02-26T06:56:35;16.40;67.10
29031;DHT22;16122;50.236;11.734;2024-02-26T06:59:01;16.30;67.00
29031;DHT22;16122;50.236;11.734;2024-02-26T07:01:27;16.40;67.10
29031;DHT22;16122;50.236;11.734;2024-02-26T07:03:53;16.40;67.00
29031;DHT22;16122;50.236;11.734;2024-02-26T07:06:18;16.40;67.00
29031;DHT22;16122;50.236;11.734;2024-02-26T07:08:44;16.30;66.80
29031;DHT22;16122;50.236;11.734;2024-02-26T07:11:10;16.40;66.90
29031;DHT22;16122;50.236;11.734;2024-02-26T07:13:36;16.40;66.90
29031;DHT22;16122;50.236;11.734;2024-02-26T07:16:03;16.40;66.80
29031;DHT22;16122;50.236;11.734;2024-02-26T07:18:29;16.40;66.80
29031;DHT22;16122;50.236;11.734;2024-02-26T07:20:55;16.30;66.50
29031;DHT22;16122;50.236;11.734;2024-02-26T07:23:21;16.30;66.60
29031;DHT22;16122;50.236;11.734;2024-02-26T07:25:47;16.30;66.50
29031;DHT22;16122;50.236;11.734;2024-02-26T07:28:14;16.30;66.50
29031;DHT22;16122;50.236;11.734;2024-02-26T07:30:40;16.30;66.40
29031;DHT22;16122;50.236;11.734;2024-02-26T07:33:07;16.30;66.30
29031;DHT22;16122;50.236;11.734;2024-02-26T07:35:33;16.30;66.30
29031;DHT22;16122;50.236;11.734;2024-02-26T07:37:59;16.30;66.20
29031;DHT22;16122;50.236;11.734;2024-02-26T07:40:25;16.30;66.10
29031;DHT22;16122;50.236;11.734;2024-02-26T07:42:51;16.30;66.00
29031;DHT22;16122;50.236;11.734;2024-02-26T07:45:17;16.30;66.00
29031;DHT22;16122;50.236;11.734;2024-02-26T07:47:46;16.30;65.90
29031;DHT22;16122;50.236;11.734;2024-02-26T07:50:12;16.30;65.90
29031;DHT22;16122;50.236;11.734;2024-02-26T07:52:38;16.30;65.80
29031;DHT22;16122;50.236;11.734;2024-02-26T07:55:05;16.30;65.70
29031;DHT22;16122;50.236;11.734;2024-02-26T07:57:32;16.30;65.70
29031;DHT22;16122;50.236;11.734;2024-02-26T07:59:59;16.30;65.60
29031;DHT22;16122;50.236;11.734;2024-02-26T08:02:25;16.30;65.60
29031;DHT22;16122;50.236;11.734;2024-02-26T08:04:51;16.30;65.60
29031;DHT22;16122;50.236;11.734;2024-02-26T08:07:19;16.30;65.70
29031;DHT22;16122;50.236;11.734;2024-02-26T08:09:47;16.30;65.60
29031;DHT22;16122;50.236;11.734;2024-02-26T08:12:13;16.30;65.60
29031;DHT22;16122;50.236;11.734;2024-02-26T08:14:39;16.30;65.60
29031;DHT22;16122;50.236;11.734;2024-02-26T08:17:05;16.30;65.50
29031;DHT22;16122;50.236;11.734;2024-02-26T08:19:31;16.30;65.40
29031;DHT22;16122;50.236;11.734;2024-02-26T08:21:57;16.30;65.30
29031;DHT22;16122;50.236;11.734;2024-02-26T08:24:23;16.30;65.30
29031;DHT22;16122;50.236;11.734;2024-02-26T08:26:49;16.30;65.30
29031;DHT22;16122;50.236;11.734;2024-02-26T08:29:15;16.30;65.50
29031;DHT22;16122;50.236;11.734;2024-02-26T08:31:40;16.30;65.60
29031;DHT22;16122;50.236;11.734;2024-02-26T08:34:06;16.30;65.80
29031;DHT22;16122;50.236;11.734;2024-02-26T08:36:33;16.20;65.80
29031;DHT22;16122;50.236;11.734;2024-02-26T08:38:59;16.30;65.90
29031;DHT22;16122;50.236;11.734;2024-02-26T08:41:26;16.20;65.80
29031;DHT22;16122;50.236;11.734;2024-02-26T08:43:52;16.20;65.90
29031;DHT22;16122;50.236;11.734;2024-02-26T08:46:17;16.20;66.00
29031;DHT22;16122;50.236;11.734;2024-02-26T08:48:43;16.20;65.90
29031;DHT22;16122;50.236;11.734;2024-02-26T08:51:09;16.20;66.00
29031;DHT22;16122;50.236;11.734;2024-02-26T08:53:36;16.20;66.00
29031;DHT22;16122;50.236;11.734;2024-02-26T08:56:02;16.20;66.10
29031;DHT22;16122;50.236;11.734;2024-02-26T08:58:28;16.20;66.20
29031;DHT22;16122;50.236;11.734;2024-02-26T09:00:55;16.20;66.80
29031;DHT22;16122;50.236;11.734;2024-02-26T09:03:21;16.30;67.20
29031;DHT22;16122;50.236;11.734;2024-02-26T09:05:47;16.20;67.30
29031;DHT22;16122;50.236;11.734;2024-02-26T09:08:13;16.30;67.60
29031;DHT22;16122;50.236;11.734;2024-02-26T09:10:39;16.30;67.80
29031;DHT22;16122;50.236;11.734;2024-02-26T09:13:05;16.30;67.80
29031;DHT22;16122;50.236;11.734;2024-02-26T09:15:31;16.30;67.80
29031;DHT22;16122;50.236;11.734;2024-02-26T09:17:57;16.30;68.00
29031;DHT22;16122;50.236;11.734;2024-02-26T09:20:23;16.40;68.00
29031;DHT22;16122;50.236;11.734;2024-02-26T09:22:49;16.40;67.80
29031;DHT22;16122;50.236;11.734;2024-02-26T09:25:16;16.40;67.80
29031;DHT22;16122;50.236;11.734;2024-02-26T09:27:43;16.40;67.40
29031;DHT22;16122;50.236;11.734;2024-02-26T09:30:12;16.40;67.20
29031;DHT22;16122;50.236;11.734;2024-02-26T09:32:39;16.40;67.10
29031;DHT22;16122;50.236;11.734;2024-02-26T09:35:06;16.40;67.00
29031;DHT22;16122;50.236;11.734;2024-02-26T09:37:32;16.40;67.00
29031;DHT22;16122;50.236;11.734;2024-02-26T09:39:59;16.40;67.00
29031;DHT22;16122;50.236;11.734;2024-02-26T09:42:26;16.30;66.90
29031;DHT22;16122;50.236;11.734;2024-02-26T09:44:54;16.30;66.90
29031;DHT22;16122;50.236;11.734;2024-02-26T09:47:28;16.30;66.90
29031;DHT22;16122;50.236;11.734;2024-02-26T09:49:56;16.30;66.80
29031;DHT22;16122;50.236;11.734;2024-02-26T09:52:23;16.30;66.70
29031;DHT22;16122;50.236;11.734;2024-02-26T09:54:49;16.20;66.60
29031;DHT22;16122;50.236;11.734;2024-02-26T09:57:16;16.30;66.70
29031;DHT22;16122;50.236;11.734;2024-02-26T09:59:43;16.30;66.70
29031;DHT22;16122;50.236;11.734;2024-02-26T10:02:12;16.30;66.60
29031;DHT22;16122;50.236;11.734;2024-02-26T10:04:39;16.30;66.50
29031;DHT22;16122;50.236;11.734;2024-02-26T10:07:13;16.30;66.40
29031;DHT22;16122;50.236;11.734;2024-02-26T10:09:40;16.30;66.40
29031;DHT22;16122;50.236;11.734;2024-02-26T10:12:08;16.30;66.30
29031;DHT22;16122;50.236;11.734;2024-02-26T10:14:35;16.30;67.60
29031;DHT22;16122;50.236;11.734;2024-02-26T10:17:02;16.30;66.80
29031;DHT22;16122;50.236;11.734;2024-02-26T10:19:29;16.30;66.30
29031;DHT22;16122;50.236;11.734;2024-02-26T10:22:00;16.30;66.80
29031;DHT22;16122;50.236;11.734;2024-02-26T10:24:27;16.30;67.40
29031;DHT22;16122;50.236;11.734;2024-02-26T10:26:57;16.30;68.10
29031;DHT22;16122;50.236;11.734;2024-02-26T10:29:24;16.30;67.90
29031;DHT22;16122;50.236;11.734;2024-02-26T10:31:51;16.30;68.00
29031;DHT22;16122;50.236;11.734;2024-02-26T10:34:18;16.30;69.00
29031;DHT22;16122;50.236;11.734;2024-02-26T10:36:44;16.30;69.30
29031;DHT22;16122;50.236;11.734;2024-02-26T10:39:12;16.30;69.30
29031;DHT22;16122;50.236;11.734;2024-02-26T10:41:39;16.30;68.70
29031;DHT22;16122;50.236;11.734;2024-02-26T10:44:06;16.30;68.40
29031;DHT22;16122;50.236;11.734;2024-02-26T10:46:34;16.30;68.70
29031;DHT22;16122;50.236;11.734;2024-02-26T10:49:00;16.30;68.90
29031;DHT22;16122;50.236;11.734;2024-02-26T10:51:28;16.30;69.50
29031;DHT22;16122;50.236;11.734;2024-02-26T10:53:56;16.30;69.80
29031;DHT22;16122;50.236;11.734;2024-02-26T10:56:28;16.30;70.00
29031;DHT22;16122;50.236;11.734;2024-02-26T10:58:55;16.30;69.90
29031;DHT22;16122;50.236;11.734;2024-02-26T11:01:27;16.40;70.10
29031;DHT22;16122;50.236;11.734;2024-02-26T11:03:55;16.40;70.00
29031;DHT22;16122;50.236;11.734;2024-02-26T11:06:22;16.40;69.90
29031;DHT22;16122;50.236;11.734;2024-02-26T11:08:49;16.40;70.00
29031;DHT22;16122;50.236;11.734;2024-02-26T11:11:20;16.40;69.80
29031;DHT22;16122;50.236;11.734;2024-02-26T11:13:47;16.40;70.10
29031;DHT22;16122;50.236;11.734;2024-02-26T11:16:21;16.40;70.20
29031;DHT22;16122;50.236;11.734;2024-02-26T11:18:52;16.40;70.30
29031;DHT22;16122;50.236;11.734;2024-02-26T11:21:21;16.40;70.50
29031;DHT22;16122;50.236;11.734;2024-02-26T11:24:06;16.40;70.70
29031;DHT22;16122;50.236;11.734;2024-02-26T11:26:40;16.40;70.20
29031;DHT22;16122;50.236;11.734;2024-02-26T11:29:09;16.50;70.60
29031;DHT22;16122;50.236;11.734;2024-02-26T11:31:37;16.50;71.00
29031;DHT22;16122;50.236;11.734;2024-02-26T11:34:07;16.50;71.40
29031;DHT22;16122;50.236;11.734;2024-02-26T11:36:34;16.50;72.20
29031;DHT22;16122;50.236;11.734;2024-02-26T11:39:02;16.50;73.50
29031;DHT22;16122;50.236;11.734;2024-02-26T11:41:29;16.50;74.30
29031;DHT22;16122;50.236;11.734;2024-02-26T11:43:59;16.50;74.50
29031;DHT22;16122;50.236;11.734;2024-02-26T11:46:31;16.50;74.90
29031;DHT22;16122;50.236;11.734;2024-02-26T11:49:01;16.50;74.80
29031;DHT22;16122;50.236;11.734;2024-02-26T11:51:33;16.40;74.00
29031;DHT22;16122;50.236;11.734;2024-02-26T11:53:59;16.50;73.80
29031;DHT22;16122;50.236;11.734;2024-02-26T11:56:25;16.50;73.50
29031;DHT22;16122;50.236;11.734;2024-02-26T11:59:00;16.50;73.40
29031;DHT22;16122;50.236;11.734;2024-02-26T12:01:36;16.50;73.10
29031;DHT22;16122;50.236;11.734;2024-02-26T12:04:05;16.50;72.80
29031;DHT22;16122;50.236;11.734;2024-02-26T12:06:39;16.40;72.40
29031;DHT22;16122;50.236;11.734;2024-02-26T12:09:07;16.50;72.40
29031;DHT22;16122;50.236;11.734;2024-02-26T12:11:37;16.40;72.10
29031;DHT22;16122;50.236;11.734;2024-02-26T12:14:05;16.40;71.80
29031;DHT22;16122;50.236;11.734;2024-02-26T12:16:40;16.40;71.70
29031;DHT22;16122;50.236;11.734;2024-02-26T12:19:09;16.40;71.60
29031;DHT22;16122;50.236;11.734;2024-02-26T12:21:36;16.40;71.40
29031;DHT22;16122;50.236;11.734;2024-02-26T12:24:15;16.40;71.20
29031;DHT22;16122;50.236;11.734;2024-02-26T12:26:43;16.40;71.10
29031;DHT22;16122;50.236;11.734;2024-02-26T12:29:09;16.40;70.90
29031;DHT22;16122;50.236;11.734;2024-02-26T12:31:36;16.40;70.60
29031;DHT22;16122;50.236;11.734;2024-02-26T12:34:04;16.40;70.40
29031;DHT22;16122;50.236;11.734;2024-02-26T12:36:31;16.40;70.40
29031;DHT22;16122;50.236;11.734;2024-02-26T12:38:58;16.40;70.40
29031;DHT22;16122;50.236;11.734;2024-02-26T12:41:24;16.40;70.90
29031;DHT22;16122;50.236;11.734;2024-02-26T12:43:50;16.40;70.20
29031;DHT22;16122;50.236;11.734;2024-02-26T12:46:16;16.40;70.20
29031;DHT22;16122;50.236;11.734;2024-02-26T12:48:43;16.40;70.20
29031;DHT22;16122;50.236;11.734;2024-02-26T12:51:11;16.40;70.10
29031;DHT22;16122;50.236;11.734;2024-02-26T12:53:38;16.40;70.10
29031;DHT22;16122;50.236;11.734;2024-02-26T12:56:08;16.40;70.00
29031;DHT22;16122;50.236;11.734;2024-02-26T12:58:36;16.40;69.90
29031;DHT22;16122;50.236;11.734;2024-02-26T13:01:04;16.30;69.80
29031;DHT22;16122;50.236;11.734;2024-02-26T13:03:31;16.30;69.70
29031;DHT22;16122;50.236;11.734;2024-02-26T13:05:58;16.30;70.10
29031;DHT22;16122;50.236;11.734;2024-02-26T13:08:24;16.30;69.80
29031;DHT22;16122;50.236;11.734;2024-02-26T13:10:50;16.30;69.80
29031;DHT22;16122;50.236;11.734;2024-02-26T13:13:19;16.30;69.70
29031;DHT22;16122;50.236;11.734;2024-02-26T13:15:46;16.30;69.60
29031;DHT22;16122;50.236;11.734;2024-02-26T13:18:15;16.30;69.60
29031;DHT22;16122;50.236;11.734;2024-02-26T13:20:42;16.30;69.50
29031;DHT22;16122;50.236;11.734;2024-02-26T13:23:11;16.30;69.50
29031;DHT22;16122;50.236;11.734;2024-02-26T13:25:38;16.30;69.50
29031;DHT22;16122;50.236;11.734;2024-02-26T13:28:17;16.20;69.40
29031;DHT22;16122;50.236;11.734;2024-02-26T13:30:54;16.30;70.20
29031;DHT22;16122;50.236;11.734;2024-02-26T13:33:26;16.30;70.30
29031;DHT22;16122;50.236;11.734;2024-02-26T13:35:56;16.30;70.20
29031;DHT22;16122;50.236;11.734;2024-02-26T13:38:23;16.30;70.20
29031;DHT22;16122;50.236;11.734;2024-02-26T13:40:50;16.30;70.30
29031;DHT22;16122;50.236;11.734;2024-02-26T13:43:16;16.30;70.30
29031;DHT22;16122;50.236;11.734;2024-02-26T13:45:42;16.30;70.40
29031;DHT22;16122;50.236;11.734;2024-02-26T13:48:09;16.20;70.30
29031;DHT22;16122;50.236;11.734;2024-02-26T13:50:37;16.20;70.50
29031;DHT22;16122;50.236;11.734;2024-02-26T13:53:03;16.20;70.60
29031;DHT22;16122;50.236;11.734;2024-02-26T13:55:30;16.20;70.70
29031;DHT22;16122;50.236;11.734;2024-02-26T13:57:58;16.20;70.80
29031;DHT22;16122;50.236;11.734;2024-02-26T14:00:26;16.20;70.90
29031;DHT22;16122;50.236;11.734;2024-02-26T14:02:52;16.20;70.90
29031;DHT22;16122;50.236;11.734;2024-02-26T14:05:17;16.20;70.90
29031;DHT22;16122;50.236;11.734;2024-02-26T14:07:44;16.20;71.00
29031;DHT22;16122;50.236;11.734;2024-02-26T14:10:12;16.20;71.00
29031;DHT22;16122;50.236;11.734;2024-02-26T14:12:38;16.20;71.20
29031;DHT22;16122;50.236;11.734;2024-02-26T14:15:08;16.20;71.30
29031;DHT22;16122;50.236;11.734;2024-02-26T14:17:35;16.20;71.40
29031;DHT22;16122;50.236;11.734;2024-02-26T14:20:01;16.20;71.30
29031;DHT22;16122;50.236;11.734;2024-02-26T14:22:29;16.20;71.40
29031;DHT22;16122;50.236;11.734;2024-02-26T14:24:56;16.20;71.40
29031;DHT22;16122;50.236;11.734;2024-02-26T14:27:23;16.20;71.50
29031;DHT22;16122;50.236;11.734;2024-02-26T14:29:49;16.10;71.40
29031;DHT22;16122;50.236;11.734;2024-02-26T14:32:15;16.10;71.60
29031;DHT22;16122;50.236;11.734;2024-02-26T14:34:41;16.10;71.50
29031;DHT22;16122;50.236;11.734;2024-02-26T14:37:06;16.10;71.60
29031;DHT22;16122;50.236;11.734;2024-02-26T14:39:32;16.10;71.50
29031;DHT22;16122;50.236;11.734;2024-02-26T14:41:59;16.10;71.50
29031;DHT22;16122;50.236;11.734;2024-02-26T14:44:26;16.10;71.50
29031;DHT22;16122;50.236;11.734;2024-02-26T14:46:52;16.20;71.70
29031;DHT22;16122;50.236;11.734;2024-02-26T14:49:18;16.10;71.60
29031;DHT22;16122;50.236;11.734;2024-02-26T14:51:44;16.10;71.70
29031;DHT22;16122;50.236;11.734;2024-02-26T14:54:13;16.10;71.60
29031;DHT22;16122;50.236;11.734;2024-02-26T14:56:40;16.10;71.60
29031;DHT22;16122;50.236;11.734;2024-02-26T14:59:06;16.10;71.20
29031;DHT22;16122;50.236;11.734;2024-02-26T15:01:32;16.10;71.10
29031;DHT22;16122;50.236;11.734;2024-02-26T15:03:59;16.10;70.90
29031;DHT22;16122;50.236;11.734;2024-02-26T15:06:25;16.10;71.30
29031;DHT22;16122;50.236;11.734;2024-02-26T15:08:55;16.10;71.30
29031;DHT22;16122;50.236;11.734;2024-02-26T15:11:21;16.10;71.20
29031;DHT22;16122;50.236;11.734;2024-02-26T15:13:47;16.10;71.40